Whitesburg, TN (37891)

5:30 AM EST on January 26, 2015 (GMT -0500)
Whitesburg | Change Station
CLOSE
Current Station
Personal Weather Station
Location: Whitesburg, TN
Elevation: 1188 ft
Nearby Weather Stations

Elev 1188 ft 36.29 °N, 83.13 °W | Updated 9 minutes ago

Rain
Rain
40.9 °F
Feels Like 35 °F
N
9.0
Wind Variable Wind from West
Gusts 14.0 mph

Today
High -- | Low -- °F
--% Chance of Precip.
Yesterday
High -- | Low -- °F
Precip. -- in
7:38 AM 5:52 PM
Waxing Crescent, 42% visible
Pressure 29.66 in
Visibility 7.0 miles
Clouds Mostly Cloudy 2000 ft
Overcast 3600 ft
Windchill 35 °F
Dew Point 38 °F
Humidity 90%
Rainfall 0.11 in
Snow Depth Not available.
UV 0 out of 12
Pollen .30 out of 12
Air Quality Not available.
Flu Activity Not available.
METAR K0VG 261015Z AUTO 24006KT 7SM -RA BKN020 OVC036 04/04 A2966 RMK AO2

More Conditions Fewer Conditions

Pressure 29.66 in
Visibility 7.0 miles
Clouds Mostly Cloudy 2000 ft
Overcast 3600 ft
Windchill 35 °F
Dew Point 38 °F
Humidity 90%
Rainfall 0.11 in
Snow Depth Not available.
UV 0 out of 12
Pollen .30 out of 12
Air Quality Not available.
Flu Activity Not available.
METAR K0VG 261015Z AUTO 24006KT 7SM -RA BKN020 OVC036 04/04 A2966 RMK AO2

More Conditions Fewer Conditions

10-Day Weather Forecast

Almanac

Astronomy

Jan. 26, 2015 Rise Set
Actual Time
Civil Twilight
Nautical Twilight
Astronomical Twilight
Moon
Length of Visible Light
Length of Day
Tomorrow will be .
, % of the Moon is Illuminated

Today's Extremes

State Highs State Lows

Community

WunderPhotos

Upload Photos

1,790,171 photos uploaded!

WunderBlogs® & News

Nearby

Air Quality

  Air Quality AQ Index Pollutant
Not available.

Snow Depth

Station Depth Elevation

Earthquake Activity

City Distance Mag. Time & Date
Minimum magnitude displayed is 2.5.

Coastal Water Temperatures

Place Temperature

Nearby Weather Stations